sensor_id;sensor_type;location;lat;lon;timestamp;temperature;humidity
16160;DHT22;8185;57.818;15.224;2023-08-12T00:00:34;12.50;99.90
16160;DHT22;8185;57.818;15.224;2023-08-12T00:03:02;12.50;99.90
16160;DHT22;8185;57.818;15.224;2023-08-12T00:05:29;12.60;99.90
16160;DHT22;8185;57.818;15.224;2023-08-12T00:07:57;12.60;99.90
16160;DHT22;8185;57.818;15.224;2023-08-12T00:10:24;12.70;99.90
16160;DHT22;8185;57.818;15.224;2023-08-12T00:12:51;12.70;99.90
16160;DHT22;8185;57.818;15.224;2023-08-12T00:15:18;12.80;99.90
16160;DHT22;8185;57.818;15.224;2023-08-12T00:17:47;12.80;99.90
16160;DHT22;8185;57.818;15.224;2023-08-12T00:20:14;12.90;99.90
16160;DHT22;8185;57.818;15.224;2023-08-12T00:22:41;12.90;99.90
16160;DHT22;8185;57.818;15.224;2023-08-12T00:25:08;12.90;99.90
16160;DHT22;8185;57.818;15.224;2023-08-12T00:27:35;12.90;99.90
16160;DHT22;8185;57.818;15.224;2023-08-12T00:30:05;13.00;99.90
16160;DHT22;8185;57.818;15.224;2023-08-12T00:32:32;13.00;99.90
16160;DHT22;8185;57.818;15.224;2023-08-12T00:35:01;13.00;99.90
16160;DHT22;8185;57.818;15.224;2023-08-12T00:37:28;13.00;99.90
16160;DHT22;8185;57.818;15.224;2023-08-12T00:39:55;13.00;99.90
16160;DHT22;8185;57.818;15.224;2023-08-12T00:42:23;13.10;99.90
16160;DHT22;8185;57.818;15.224;2023-08-12T00:44:50;13.10;99.90
16160;DHT22;8185;57.818;15.224;2023-08-12T00:47:17;13.10;99.90
16160;DHT22;8185;57.818;15.224;2023-08-12T00:49:44;13.10;99.90
16160;DHT22;8185;57.818;15.224;2023-08-12T00:52:13;13.10;99.90
16160;DHT22;8185;57.818;15.224;2023-08-12T00:54:41;13.20;99.90
16160;DHT22;8185;57.818;15.224;2023-08-12T00:57:08;13.20;99.90
16160;DHT22;8185;57.818;15.224;2023-08-12T00:59:36;13.30;99.90
16160;DHT22;8185;57.818;15.224;2023-08-12T01:02:04;13.20;99.90
16160;DHT22;8185;57.818;15.224;2023-08-12T01:04:31;13.30;99.90
16160;DHT22;8185;57.818;15.224;2023-08-12T01:06:59;13.30;99.90
16160;DHT22;8185;57.818;15.224;2023-08-12T01:09:27;13.40;99.90
16160;DHT22;8185;57.818;15.224;2023-08-12T01:12:01;13.50;99.90
16160;DHT22;8185;57.818;15.224;2023-08-12T01:14:38;13.50;99.90
16160;DHT22;8185;57.818;15.224;2023-08-12T01:17:11;13.50;99.90
16160;DHT22;8185;57.818;15.224;2023-08-12T01:19:41;13.60;99.90
16160;DHT22;8185;57.818;15.224;2023-08-12T01:22:11;13.70;99.90
16160;DHT22;8185;57.818;15.224;2023-08-12T01:24:41;13.80;99.90
16160;DHT22;8185;57.818;15.224;2023-08-12T01:27:10;13.80;99.90
16160;DHT22;8185;57.818;15.224;2023-08-12T01:29:41;13.90;99.90
16160;DHT22;8185;57.818;15.224;2023-08-12T01:32:14;13.90;99.90
16160;DHT22;8185;57.818;15.224;2023-08-12T01:34:53;13.90;99.90
16160;DHT22;8185;57.818;15.224;2023-08-12T01:37:24;13.90;99.90
16160;DHT22;8185;57.818;15.224;2023-08-12T01:39:56;13.90;99.90
16160;DHT22;8185;57.818;15.224;2023-08-12T01:42:26;13.80;99.90
16160;DHT22;8185;57.818;15.224;2023-08-12T01:44:54;13.90;99.90
16160;DHT22;8185;57.818;15.224;2023-08-12T01:47:22;13.90;99.90
16160;DHT22;8185;57.818;15.224;2023-08-12T01:49:49;13.90;99.90
16160;DHT22;8185;57.818;15.224;2023-08-12T01:52:16;14.00;99.90
16160;DHT22;8185;57.818;15.224;2023-08-12T01:54:44;14.00;99.90
16160;DHT22;8185;57.818;15.224;2023-08-12T01:57:12;14.00;99.90
16160;DHT22;8185;57.818;15.224;2023-08-12T01:59:39;14.00;99.90
16160;DHT22;8185;57.818;15.224;2023-08-12T02:02:09;14.10;99.90
16160;DHT22;8185;57.818;15.224;2023-08-12T02:04:37;14.10;99.90
16160;DHT22;8185;57.818;15.224;2023-08-12T02:07:04;14.10;99.90
16160;DHT22;8185;57.818;15.224;2023-08-12T02:09:31;14.10;99.90
16160;DHT22;8185;57.818;15.224;2023-08-12T02:11:59;14.10;99.90
16160;DHT22;8185;57.818;15.224;2023-08-12T02:14:27;14.10;99.90
16160;DHT22;8185;57.818;15.224;2023-08-12T02:16:54;14.20;99.90
16160;DHT22;8185;57.818;15.224;2023-08-12T02:19:22;14.20;99.90
16160;DHT22;8185;57.818;15.224;2023-08-12T02:21:49;14.20;99.90
16160;DHT22;8185;57.818;15.224;2023-08-12T02:24:16;14.20;99.90
16160;DHT22;8185;57.818;15.224;2023-08-12T02:26:43;14.30;99.90
16160;DHT22;8185;57.818;15.224;2023-08-12T02:29:10;14.30;99.90
16160;DHT22;8185;57.818;15.224;2023-08-12T02:31:39;14.30;99.90
16160;DHT22;8185;57.818;15.224;2023-08-12T02:34:06;14.20;99.90
16160;DHT22;8185;57.818;15.224;2023-08-12T02:36:33;14.30;99.90
16160;DHT22;8185;57.818;15.224;2023-08-12T02:39:00;14.30;99.90
16160;DHT22;8185;57.818;15.224;2023-08-12T02:41:28;14.30;99.90
16160;DHT22;8185;57.818;15.224;2023-08-12T02:43:55;14.30;99.90
16160;DHT22;8185;57.818;15.224;2023-08-12T02:46:22;14.30;99.90
16160;DHT22;8185;57.818;15.224;2023-08-12T02:48:52;14.30;99.90
16160;DHT22;8185;57.818;15.224;2023-08-12T02:51:19;14.30;99.90
16160;DHT22;8185;57.818;15.224;2023-08-12T02:53:46;14.30;99.90
16160;DHT22;8185;57.818;15.224;2023-08-12T02:56:14;14.20;99.90
16160;DHT22;8185;57.818;15.224;2023-08-12T02:58:41;14.20;99.90
16160;DHT22;8185;57.818;15.224;2023-08-12T03:01:08;14.20;99.90
16160;DHT22;8185;57.818;15.224;2023-08-12T03:03:35;14.30;99.90
16160;DHT22;8185;57.818;15.224;2023-08-12T03:06:05;14.30;99.90
16160;DHT22;8185;57.818;15.224;2023-08-12T03:08:32;14.30;99.90
16160;DHT22;8185;57.818;15.224;2023-08-12T03:10:59;14.30;99.90
16160;DHT22;8185;57.818;15.224;2023-08-12T03:13:27;14.30;99.90
16160;DHT22;8185;57.818;15.224;2023-08-12T03:15:54;14.30;99.90
16160;DHT22;8185;57.818;15.224;2023-08-12T03:18:21;14.20;99.90
16160;DHT22;8185;57.818;15.224;2023-08-12T03:20:49;14.20;99.90
16160;DHT22;8185;57.818;15.224;2023-08-12T03:23:17;14.20;99.90
16160;DHT22;8185;57.818;15.224;2023-08-12T03:25:47;14.20;99.90
16160;DHT22;8185;57.818;15.224;2023-08-12T03:28:14;14.10;99.90
16160;DHT22;8185;57.818;15.224;2023-08-12T03:30:41;14.10;99.90
16160;DHT22;8185;57.818;15.224;2023-08-12T03:33:08;14.10;99.90
16160;DHT22;8185;57.818;15.224;2023-08-12T03:35:35;14.20;99.90
16160;DHT22;8185;57.818;15.224;2023-08-12T03:38:02;14.20;99.90
16160;DHT22;8185;57.818;15.224;2023-08-12T03:40:31;14.20;99.90
16160;DHT22;8185;57.818;15.224;2023-08-12T03:42:58;14.20;99.90
16160;DHT22;8185;57.818;15.224;2023-08-12T03:45:25;14.10;99.90
16160;DHT22;8185;57.818;15.224;2023-08-12T03:47:52;14.20;99.90
16160;DHT22;8185;57.818;15.224;2023-08-12T03:50:19;14.20;99.90
16160;DHT22;8185;57.818;15.224;2023-08-12T03:52:47;14.20;99.90
16160;DHT22;8185;57.818;15.224;2023-08-12T03:55:15;14.10;99.90
16160;DHT22;8185;57.818;15.224;2023-08-12T03:57:43;14.10;99.90
16160;DHT22;8185;57.818;15.224;2023-08-12T04:00:11;14.10;99.90
16160;DHT22;8185;57.818;15.224;2023-08-12T04:02:39;14.10;99.90
16160;DHT22;8185;57.818;15.224;2023-08-12T04:05:06;14.20;99.90
16160;DHT22;8185;57.818;15.224;2023-08-12T04:07:33;14.20;99.90
16160;DHT22;8185;57.818;15.224;2023-08-12T04:10:01;14.20;99.90
16160;DHT22;8185;57.818;15.224;2023-08-12T04:12:28;14.20;99.90
16160;DHT22;8185;57.818;15.224;2023-08-12T04:14:56;14.20;99.90
16160;DHT22;8185;57.818;15.224;2023-08-12T04:17:23;14.20;99.90
16160;DHT22;8185;57.818;15.224;2023-08-12T04:19:50;14.20;99.90
16160;DHT22;8185;57.818;15.224;2023-08-12T04:22:18;14.20;99.90
16160;DHT22;8185;57.818;15.224;2023-08-12T04:24:45;14.30;99.90
16160;DHT22;8185;57.818;15.224;2023-08-12T04:27:12;14.30;99.90
16160;DHT22;8185;57.818;15.224;2023-08-12T04:29:39;14.40;99.90
16160;DHT22;8185;57.818;15.224;2023-08-12T04:32:08;14.40;99.90
16160;DHT22;8185;57.818;15.224;2023-08-12T04:34:35;14.60;99.90
16160;DHT22;8185;57.818;15.224;2023-08-12T04:37:02;14.70;99.90
16160;DHT22;8185;57.818;15.224;2023-08-12T04:39:29;14.80;99.90
16160;DHT22;8185;57.818;15.224;2023-08-12T04:41:58;14.90;99.90
16160;DHT22;8185;57.818;15.224;2023-08-12T04:44:25;15.00;99.90
16160;DHT22;8185;57.818;15.224;2023-08-12T04:46:52;15.10;99.90
16160;DHT22;8185;57.818;15.224;2023-08-12T04:49:20;15.10;99.90
16160;DHT22;8185;57.818;15.224;2023-08-12T04:51:51;15.20;99.90
16160;DHT22;8185;57.818;15.224;2023-08-12T04:54:19;15.30;99.90
16160;DHT22;8185;57.818;15.224;2023-08-12T04:56:46;15.40;99.90
16160;DHT22;8185;57.818;15.224;2023-08-12T04:59:13;15.50;99.90
16160;DHT22;8185;57.818;15.224;2023-08-12T05:01:41;15.60;99.90
16160;DHT22;8185;57.818;15.224;2023-08-12T05:04:09;15.60;99.90
16160;DHT22;8185;57.818;15.224;2023-08-12T05:06:37;15.60;99.90
16160;DHT22;8185;57.818;15.224;2023-08-12T05:09:04;15.70;99.90
16160;DHT22;8185;57.818;15.224;2023-08-12T05:11:32;15.70;99.90
16160;DHT22;8185;57.818;15.224;2023-08-12T05:13:59;15.70;99.90
16160;DHT22;8185;57.818;15.224;2023-08-12T05:16:26;15.70;99.90
16160;DHT22;8185;57.818;15.224;2023-08-12T05:18:55;15.80;99.90
16160;DHT22;8185;57.818;15.224;2023-08-12T05:21:22;15.90;99.90
16160;DHT22;8185;57.818;15.224;2023-08-12T05:23:51;15.90;99.90
16160;DHT22;8185;57.818;15.224;2023-08-12T05:26:18;16.00;99.90
16160;DHT22;8185;57.818;15.224;2023-08-12T05:28:46;16.00;99.90
16160;DHT22;8185;57.818;15.224;2023-08-12T05:31:13;16.00;99.90
16160;DHT22;8185;57.818;15.224;2023-08-12T05:33:41;15.90;99.90
16160;DHT22;8185;57.818;15.224;2023-08-12T05:36:08;15.90;99.90
16160;DHT22;8185;57.818;15.224;2023-08-12T05:38:36;15.80;99.90
16160;DHT22;8185;57.818;15.224;2023-08-12T05:41:06;15.80;99.90
16160;DHT22;8185;57.818;15.224;2023-08-12T05:43:34;15.80;99.90
16160;DHT22;8185;57.818;15.224;2023-08-12T05:46:01;15.90;99.90
16160;DHT22;8185;57.818;15.224;2023-08-12T05:48:29;15.90;99.90
16160;DHT22;8185;57.818;15.224;2023-08-12T05:50:56;15.90;99.90
16160;DHT22;8185;57.818;15.224;2023-08-12T05:53:23;15.90;99.90
16160;DHT22;8185;57.818;15.224;2023-08-12T05:55:51;15.90;99.90
16160;DHT22;8185;57.818;15.224;2023-08-12T05:58:19;16.00;99.90
16160;DHT22;8185;57.818;15.224;2023-08-12T06:00:47;16.00;99.90
16160;DHT22;8185;57.818;15.224;2023-08-12T06:03:14;16.10;99.90
16160;DHT22;8185;57.818;15.224;2023-08-12T06:05:42;16.10;99.90
16160;DHT22;8185;57.818;15.224;2023-08-12T06:08:10;16.10;99.90
16160;DHT22;8185;57.818;15.224;2023-08-12T06:10:37;16.20;99.90
16160;DHT22;8185;57.818;15.224;2023-08-12T06:13:04;16.30;99.90
16160;DHT22;8185;57.818;15.224;2023-08-12T06:15:33;16.40;99.90
16160;DHT22;8185;57.818;15.224;2023-08-12T06:18:02;16.50;99.90
16160;DHT22;8185;57.818;15.224;2023-08-12T06:20:29;16.60;99.90
16160;DHT22;8185;57.818;15.224;2023-08-12T06:22:56;16.60;99.90
16160;DHT22;8185;57.818;15.224;2023-08-12T06:25:23;16.70;99.90
16160;DHT22;8185;57.818;15.224;2023-08-12T06:27:50;16.70;99.90
16160;DHT22;8185;57.818;15.224;2023-08-12T06:30:18;16.70;99.90
16160;DHT22;8185;57.818;15.224;2023-08-12T06:32:47;16.80;99.90
16160;DHT22;8185;57.818;15.224;2023-08-12T06:35:14;16.90;99.90
16160;DHT22;8185;57.818;15.224;2023-08-12T06:37:41;16.90;99.90
16160;DHT22;8185;57.818;15.224;2023-08-12T06:40:08;17.00;99.90
16160;DHT22;8185;57.818;15.224;2023-08-12T06:42:36;17.00;99.90
16160;DHT22;8185;57.818;15.224;2023-08-12T06:45:03;17.00;99.90
16160;DHT22;8185;57.818;15.224;2023-08-12T06:47:31;17.10;99.90
16160;DHT22;8185;57.818;15.224;2023-08-12T06:50:00;17.10;99.90
16160;DHT22;8185;57.818;15.224;2023-08-12T06:52:27;17.10;99.90
16160;DHT22;8185;57.818;15.224;2023-08-12T06:54:54;17.10;99.90
16160;DHT22;8185;57.818;15.224;2023-08-12T06:57:22;17.10;99.90
16160;DHT22;8185;57.818;15.224;2023-08-12T06:59:49;17.10;99.90
16160;DHT22;8185;57.818;15.224;2023-08-12T07:02:16;17.10;99.90
16160;DHT22;8185;57.818;15.224;2023-08-12T07:04:43;17.10;99.90
16160;DHT22;8185;57.818;15.224;2023-08-12T07:07:12;17.20;99.90
16160;DHT22;8185;57.818;15.224;2023-08-12T07:09:39;17.30;99.90
16160;DHT22;8185;57.818;15.224;2023-08-12T07:12:07;17.50;99.90
16160;DHT22;8185;57.818;15.224;2023-08-12T07:14:34;17.40;99.90
16160;DHT22;8185;57.818;15.224;2023-08-12T07:17:01;17.60;99.90
16160;DHT22;8185;57.818;15.224;2023-08-12T07:19:28;17.60;99.90
16160;DHT22;8185;57.818;15.224;2023-08-12T07:21:55;17.70;99.90
16160;DHT22;8185;57.818;15.224;2023-08-12T07:24:24;17.90;99.90
16160;DHT22;8185;57.818;15.224;2023-08-12T07:26:51;18.00;99.90
16160;DHT22;8185;57.818;15.224;2023-08-12T07:29:18;18.20;99.90
16160;DHT22;8185;57.818;15.224;2023-08-12T07:31:45;18.40;99.90
16160;DHT22;8185;57.818;15.224;2023-08-12T07:34:13;18.50;99.90
16160;DHT22;8185;57.818;15.224;2023-08-12T07:36:40;18.70;99.90
16160;DHT22;8185;57.818;15.224;2023-08-12T07:39:07;18.80;99.90
16160;DHT22;8185;57.818;15.224;2023-08-12T07:41:36;18.70;99.90
16160;DHT22;8185;57.818;15.224;2023-08-12T07:44:03;18.80;99.90
16160;DHT22;8185;57.818;15.224;2023-08-12T07:46:31;18.90;99.90
16160;DHT22;8185;57.818;15.224;2023-08-12T07:48:58;19.00;99.90
16160;DHT22;8185;57.818;15.224;2023-08-12T07:51:25;18.90;99.90
16160;DHT22;8185;57.818;15.224;2023-08-12T07:53:52;19.00;99.90
16160;DHT22;8185;57.818;15.224;2023-08-12T07:56:19;19.00;99.90
16160;DHT22;8185;57.818;15.224;2023-08-12T07:58:48;18.90;99.90
16160;DHT22;8185;57.818;15.224;2023-08-12T08:01:15;19.00;99.90
16160;DHT22;8185;57.818;15.224;2023-08-12T08:03:42;19.30;99.90
16160;DHT22;8185;57.818;15.224;2023-08-12T08:06:09;19.50;99.90
16160;DHT22;8185;57.818;15.224;2023-08-12T08:08:37;19.40;99.90
16160;DHT22;8185;57.818;15.224;2023-08-12T08:11:04;19.60;99.90
16160;DHT22;8185;57.818;15.224;2023-08-12T08:13:32;19.60;99.90
16160;DHT22;8185;57.818;15.224;2023-08-12T08:16:00;19.70;99.90
16160;DHT22;8185;57.818;15.224;2023-08-12T08:18:27;19.70;99.90
16160;DHT22;8185;57.818;15.224;2023-08-12T08:20:55;20.00;99.90
16160;DHT22;8185;57.818;15.224;2023-08-12T08:23:22;20.00;99.90
16160;DHT22;8185;57.818;15.224;2023-08-12T08:25:49;19.70;99.90
16160;DHT22;8185;57.818;15.224;2023-08-12T08:28:16;20.00;99.90
16160;DHT22;8185;57.818;15.224;2023-08-12T08:30:44;20.20;99.90
16160;DHT22;8185;57.818;15.224;2023-08-12T08:33:13;20.60;99.90
16160;DHT22;8185;57.818;15.224;2023-08-12T08:35:40;20.50;99.90
16160;DHT22;8185;57.818;15.224;2023-08-12T08:38:07;20.60;99.90
16160;DHT22;8185;57.818;15.224;2023-08-12T08:40:34;20.70;99.90
16160;DHT22;8185;57.818;15.224;2023-08-12T08:43:04;20.90;99.90
16160;DHT22;8185;57.818;15.224;2023-08-12T08:45:34;21.00;99.90
16160;DHT22;8185;57.818;15.224;2023-08-12T08:48:04;21.30;99.90
16160;DHT22;8185;57.818;15.224;2023-08-12T08:50:36;21.40;99.90
16160;DHT22;8185;57.818;15.224;2023-08-12T08:53:05;21.40;99.90
16160;DHT22;8185;57.818;15.224;2023-08-12T08:55:33;21.10;99.90
16160;DHT22;8185;57.818;15.224;2023-08-12T08:58:00;21.30;99.90
16160;DHT22;8185;57.818;15.224;2023-08-12T09:00:28;21.30;99.90
16160;DHT22;8185;57.818;15.224;2023-08-12T09:02:58;21.40;99.90
16160;DHT22;8185;57.818;15.224;2023-08-12T09:05:25;21.30;99.90
16160;DHT22;8185;57.818;15.224;2023-08-12T09:07:54;21.50;99.90
16160;DHT22;8185;57.818;15.224;2023-08-12T09:10:24;21.70;99.90
16160;DHT22;8185;57.818;15.224;2023-08-12T09:12:55;21.60;99.90
16160;DHT22;8185;57.818;15.224;2023-08-12T09:15:22;21.70;99.90
16160;DHT22;8185;57.818;15.224;2023-08-12T09:17:49;21.60;99.90
16160;DHT22;8185;57.818;15.224;2023-08-12T09:20:17;21.20;99.90
16160;DHT22;8185;57.818;15.224;2023-08-12T09:22:44;21.30;99.90
16160;DHT22;8185;57.818;15.224;2023-08-12T09:25:12;21.40;99.90
16160;DHT22;8185;57.818;15.224;2023-08-12T09:27:40;21.20;99.90
16160;DHT22;8185;57.818;15.224;2023-08-12T09:30:07;21.20;99.90
16160;DHT22;8185;57.818;15.224;2023-08-12T09:32:35;20.90;99.90
16160;DHT22;8185;57.818;15.224;2023-08-12T09:35:04;20.90;99.90
16160;DHT22;8185;57.818;15.224;2023-08-12T09:37:32;21.00;99.90
16160;DHT22;8185;57.818;15.224;2023-08-12T09:39:59;20.90;99.90
16160;DHT22;8185;57.818;15.224;2023-08-12T09:42:33;21.10;99.90
16160;DHT22;8185;57.818;15.224;2023-08-12T09:45:01;21.00;99.90
16160;DHT22;8185;57.818;15.224;2023-08-12T09:47:28;21.00;99.90
16160;DHT22;8185;57.818;15.224;2023-08-12T09:49:56;20.80;99.90
16160;DHT22;8185;57.818;15.224;2023-08-12T09:52:24;20.70;99.90
16160;DHT22;8185;57.818;15.224;2023-08-12T09:54:53;20.90;99.90
16160;DHT22;8185;57.818;15.224;2023-08-12T09:57:22;20.60;99.90
16160;DHT22;8185;57.818;15.224;2023-08-12T09:59:55;20.60;99.90
16160;DHT22;8185;57.818;15.224;2023-08-12T10:02:23;20.50;99.90
16160;DHT22;8185;57.818;15.224;2023-08-12T10:04:54;20.30;99.90
16160;DHT22;8185;57.818;15.224;2023-08-12T10:07:23;20.20;99.90
16160;DHT22;8185;57.818;15.224;2023-08-12T10:09:50;19.80;99.90
16160;DHT22;8185;57.818;15.224;2023-08-12T10:12:18;19.80;99.90
16160;DHT22;8185;57.818;15.224;2023-08-12T10:14:46;19.80;99.90
16160;DHT22;8185;57.818;15.224;2023-08-12T10:17:16;19.90;99.90
16160;DHT22;8185;57.818;15.224;2023-08-12T10:19:44;20.00;99.90
16160;DHT22;8185;57.818;15.224;2023-08-12T10:22:12;20.00;99.90
16160;DHT22;8185;57.818;15.224;2023-08-12T10:24:42;20.00;99.90
16160;DHT22;8185;57.818;15.224;2023-08-12T10:27:10;20.10;99.90
16160;DHT22;8185;57.818;15.224;2023-08-12T10:29:39;20.20;99.90
16160;DHT22;8185;57.818;15.224;2023-08-12T10:32:09;20.40;99.90
16160;DHT22;8185;57.818;15.224;2023-08-12T10:34:38;20.50;99.90
16160;DHT22;8185;57.818;15.224;2023-08-12T10:37:05;20.50;99.90
16160;DHT22;8185;57.818;15.224;2023-08-12T10:39:33;20.40;99.90
16160;DHT22;8185;57.818;15.224;2023-08-12T10:42:01;20.50;99.90
16160;DHT22;8185;57.818;15.224;2023-08-12T10:44:39;20.60;99.90
16160;DHT22;8185;57.818;15.224;2023-08-12T10:47:08;20.80;99.90
16160;DHT22;8185;57.818;15.224;2023-08-12T10:49:42;20.80;99.90
16160;DHT22;8185;57.818;15.224;2023-08-12T10:52:26;20.90;99.90
16160;DHT22;8185;57.818;15.224;2023-08-12T10:54:54;21.00;99.90
16160;DHT22;8185;57.818;15.224;2023-08-12T10:57:34;21.00;99.90
16160;DHT22;8185;57.818;15.224;2023-08-12T11:00:05;20.80;99.90
16160;DHT22;8185;57.818;15.224;2023-08-12T11:02:34;20.90;99.90
16160;DHT22;8185;57.818;15.224;2023-08-12T11:05:06;20.80;99.90
16160;DHT22;8185;57.818;15.224;2023-08-12T11:07:38;21.00;99.90
16160;DHT22;8185;57.818;15.224;2023-08-12T11:10:10;21.10;99.90
16160;DHT22;8185;57.818;15.224;2023-08-12T11:12:39;21.10;99.90
16160;DHT22;8185;57.818;15.224;2023-08-12T11:15:08;21.30;99.90
16160;DHT22;8185;57.818;15.224;2023-08-12T11:17:36;21.50;99.90
16160;DHT22;8185;57.818;15.224;2023-08-12T11:20:07;21.60;99.90
16160;DHT22;8185;57.818;15.224;2023-08-12T11:22:37;21.40;99.90
16160;DHT22;8185;57.818;15.224;2023-08-12T11:25:07;21.20;99.90
16160;DHT22;8185;57.818;15.224;2023-08-12T11:27:39;21.10;99.90
16160;DHT22;8185;57.818;15.224;2023-08-12T11:30:08;21.10;99.90
16160;DHT22;8185;57.818;15.224;2023-08-12T11:32:37;20.80;99.90
16160;DHT22;8185;57.818;15.224;2023-08-12T11:35:07;20.70;99.90
16160;DHT22;8185;57.818;15.224;2023-08-12T11:37:36;20.60;99.90
16160;DHT22;8185;57.818;15.224;2023-08-12T11:40:05;20.50;99.90
16160;DHT22;8185;57.818;15.224;2023-08-12T11:42:34;20.60;99.90
16160;DHT22;8185;57.818;15.224;2023-08-12T11:45:02;20.60;99.90
16160;DHT22;8185;57.818;15.224;2023-08-12T11:47:29;20.60;99.90
16160;DHT22;8185;57.818;15.224;2023-08-12T11:49:56;20.50;99.90
16160;DHT22;8185;57.818;15.224;2023-08-12T11:52:25;20.50;99.90
16160;DHT22;8185;57.818;15.224;2023-08-12T11:54:53;20.50;99.90
16160;DHT22;8185;57.818;15.224;2023-08-12T11:57:22;20.50;99.90
16160;DHT22;8185;57.818;15.224;2023-08-12T11:59:49;20.60;99.90
16160;DHT22;8185;57.818;15.224;2023-08-12T12:02:17;20.60;99.90
16160;DHT22;8185;57.818;15.224;2023-08-12T12:04:44;20.80;99.90
16160;DHT22;8185;57.818;15.224;2023-08-12T12:07:18;20.90;99.90
16160;DHT22;8185;57.818;15.224;2023-08-12T12:09:50;20.80;99.90
16160;DHT22;8185;57.818;15.224;2023-08-12T12:12:17;20.80;99.90
16160;DHT22;8185;57.818;15.224;2023-08-12T12:14:47;20.60;99.90
16160;DHT22;8185;57.818;15.224;2023-08-12T12:17:15;20.50;99.90
16160;DHT22;8185;57.818;15.224;2023-08-12T12:19:43;20.30;99.90
16160;DHT22;8185;57.818;15.224;2023-08-12T12:22:10;20.30;99.90
16160;DHT22;8185;57.818;15.224;2023-08-12T12:24:44;20.40;99.90
16160;DHT22;8185;57.818;15.224;2023-08-12T12:27:14;20.60;99.90
16160;DHT22;8185;57.818;15.224;2023-08-12T12:29:42;20.80;99.90
16160;DHT22;8185;57.818;15.224;2023-08-12T12:32:09;20.90;99.90
16160;DHT22;8185;57.818;15.224;2023-08-12T12:34:37;21.10;99.90
16160;DHT22;8185;57.818;15.224;2023-08-12T12:37:04;21.30;99.90
16160;DHT22;8185;57.818;15.224;2023-08-12T12:39:31;21.40;99.90
16160;DHT22;8185;57.818;15.224;2023-08-12T12:41:59;21.40;99.90
16160;DHT22;8185;57.818;15.224;2023-08-12T12:44:28;21.50;99.90
16160;DHT22;8185;57.818;15.224;2023-08-12T12:46:55;21.50;99.90
16160;DHT22;8185;57.818;15.224;2023-08-12T12:49:22;21.50;99.90
16160;DHT22;8185;57.818;15.224;2023-08-12T12:51:50;21.50;99.90
16160;DHT22;8185;57.818;15.224;2023-08-12T12:54:17;21.50;99.90
16160;DHT22;8185;57.818;15.224;2023-08-12T12:56:44;21.50;99.90
16160;DHT22;8185;57.818;15.224;2023-08-12T12:59:12;21.60;99.90
16160;DHT22;8185;57.818;15.224;2023-08-12T13:01:41;21.80;99.90
16160;DHT22;8185;57.818;15.224;2023-08-12T13:04:09;21.90;99.90
16160;DHT22;8185;57.818;15.224;2023-08-12T13:06:36;21.90;99.90
16160;DHT22;8185;57.818;15.224;2023-08-12T13:09:03;21.90;99.90
16160;DHT22;8185;57.818;15.224;2023-08-12T13:11:32;21.90;99.90
16160;DHT22;8185;57.818;15.224;2023-08-12T13:14:01;21.80;99.90
16160;DHT22;8185;57.818;15.224;2023-08-12T13:16:28;21.70;99.90
16160;DHT22;8185;57.818;15.224;2023-08-12T13:18:57;21.70;99.90
16160;DHT22;8185;57.818;15.224;2023-08-12T13:21:25;21.60;99.90
16160;DHT22;8185;57.818;15.224;2023-08-12T13:23:53;21.60;99.90
16160;DHT22;8185;57.818;15.224;2023-08-12T13:26:21;21.70;99.90
16160;DHT22;8185;57.818;15.224;2023-08-12T13:28:48;21.50;99.90
16160;DHT22;8185;57.818;15.224;2023-08-12T13:31:15;21.60;99.90
16160;DHT22;8185;57.818;15.224;2023-08-12T13:33:43;21.70;99.90
16160;DHT22;8185;57.818;15.224;2023-08-12T13:36:11;21.70;99.90
16160;DHT22;8185;57.818;15.224;2023-08-12T13:38:39;21.60;99.90
16160;DHT22;8185;57.818;15.224;2023-08-12T13:41:06;21.70;99.90
16160;DHT22;8185;57.818;15.224;2023-08-12T13:43:33;21.60;99.90
16160;DHT22;8185;57.818;15.224;2023-08-12T13:46:00;21.60;99.90
16160;DHT22;8185;57.818;15.224;2023-08-12T13:48:28;21.60;99.90
16160;DHT22;8185;57.818;15.224;2023-08-12T13:50:55;21.80;99.90
16160;DHT22;8185;57.818;15.224;2023-08-12T13:53:24;22.10;99.90
16160;DHT22;8185;57.818;15.224;2023-08-12T13:55:51;22.40;99.90
16160;DHT22;8185;57.818;15.224;2023-08-12T13:58:18;22.50;99.90
16160;DHT22;8185;57.818;15.224;2023-08-12T14:00:45;22.50;99.90
16160;DHT22;8185;57.818;15.224;2023-08-12T14:03:13;22.40;99.90
16160;DHT22;8185;57.818;15.224;2023-08-12T14:05:41;22.30;99.90
16160;DHT22;8185;57.818;15.224;2023-08-12T14:08:09;22.40;99.90
16160;DHT22;8185;57.818;15.224;2023-08-12T14:10:37;22.30;99.90
16160;DHT22;8185;57.818;15.224;2023-08-12T14:13:04;22.20;99.90
16160;DHT22;8185;57.818;15.224;2023-08-12T14:15:32;22.20;99.90
16160;DHT22;8185;57.818;15.224;2023-08-12T14:18:00;22.10;99.90
16160;DHT22;8185;57.818;15.224;2023-08-12T14:20:28;22.20;99.90
16160;DHT22;8185;57.818;15.224;2023-08-12T14:22:55;22.20;99.90
16160;DHT22;8185;57.818;15.224;2023-08-12T14:25:22;22.20;99.90
16160;DHT22;8185;57.818;15.224;2023-08-12T14:27:51;22.20;99.90
16160;DHT22;8185;57.818;15.224;2023-08-12T14:30:18;22.10;99.90
16160;DHT22;8185;57.818;15.224;2023-08-12T14:32:46;22.10;99.90
16160;DHT22;8185;57.818;15.224;2023-08-12T14:35:13;22.00;99.90
16160;DHT22;8185;57.818;15.224;2023-08-12T14:37:40;22.00;99.90
16160;DHT22;8185;57.818;15.224;2023-08-12T14:40:08;22.00;99.90
16160;DHT22;8185;57.818;15.224;2023-08-12T14:42:35;22.00;99.90
16160;DHT22;8185;57.818;15.224;2023-08-12T14:45:05;21.90;99.90
16160;DHT22;8185;57.818;15.224;2023-08-12T14:47:32;21.90;99.90
16160;DHT22;8185;57.818;15.224;2023-08-12T14:49:59;21.90;99.90
16160;DHT22;8185;57.818;15.224;2023-08-12T14:52:27;22.00;99.90
16160;DHT22;8185;57.818;15.224;2023-08-12T14:54:54;21.90;99.90
16160;DHT22;8185;57.818;15.224;2023-08-12T14:57:22;21.90;99.90
16160;DHT22;8185;57.818;15.224;2023-08-12T14:59:49;22.10;99.90
16160;DHT22;8185;57.818;15.224;2023-08-12T15:02:20;21.90;99.90
16160;DHT22;8185;57.818;15.224;2023-08-12T15:04:49;21.70;99.90
16160;DHT22;8185;57.818;15.224;2023-08-12T15:07:16;21.80;99.90
16160;DHT22;8185;57.818;15.224;2023-08-12T15:09:44;21.70;99.90
16160;DHT22;8185;57.818;15.224;2023-08-12T15:12:11;21.70;99.90
16160;DHT22;8185;57.818;15.224;2023-08-12T15:14:39;21.70;99.90
16160;DHT22;8185;57.818;15.224;2023-08-12T15:17:06;21.50;99.90
16160;DHT22;8185;57.818;15.224;2023-08-12T15:19:34;21.50;99.90
16160;DHT22;8185;57.818;15.224;2023-08-12T15:22:02;21.60;99.90
16160;DHT22;8185;57.818;15.224;2023-08-12T15:24:29;21.70;99.90
16160;DHT22;8185;57.818;15.224;2023-08-12T15:26:57;21.70;99.90
16160;DHT22;8185;57.818;15.224;2023-08-12T15:29:24;21.80;99.90
16160;DHT22;8185;57.818;15.224;2023-08-12T15:31:51;21.80;99.90
16160;DHT22;8185;57.818;15.224;2023-08-12T15:34:18;21.70;99.90